sensor_id;sensor_type;location;lat;lon;timestamp;temperature;humidity
12604;DHT22;6367;52.508;13.284;2023-07-13T00:02:10;24.10;78.10
12604;DHT22;6367;52.508;13.284;2023-07-13T00:04:36;24.00;78.30
12604;DHT22;6367;52.508;13.284;2023-07-13T00:07:01;23.90;78.70
12604;DHT22;6367;52.508;13.284;2023-07-13T00:09:28;23.80;78.90
12604;DHT22;6367;52.508;13.284;2023-07-13T00:11:56;23.70;79.10
12604;DHT22;6367;52.508;13.284;2023-07-13T00:14:25;23.70;79.00
12604;DHT22;6367;52.508;13.284;2023-07-13T00:16:51;23.70;79.10
12604;DHT22;6367;52.508;13.284;2023-07-13T00:19:16;23.70;78.90
12604;DHT22;6367;52.508;13.284;2023-07-13T00:21:42;23.70;79.00
12604;DHT22;6367;52.508;13.284;2023-07-13T00:24:11;23.60;79.30
12604;DHT22;6367;52.508;13.284;2023-07-13T00:26:41;23.60;79.20
12604;DHT22;6367;52.508;13.284;2023-07-13T00:29:10;23.60;79.40
12604;DHT22;6367;52.508;13.284;2023-07-13T00:31:36;23.50;79.50
12604;DHT22;6367;52.508;13.284;2023-07-13T00:34:02;23.40;79.60
12604;DHT22;6367;52.508;13.284;2023-07-13T00:36:29;23.50;79.40
12604;DHT22;6367;52.508;13.284;2023-07-13T00:38:55;23.40;79.60
12604;DHT22;6367;52.508;13.284;2023-07-13T00:41:21;23.40;80.60
12604;DHT22;6367;52.508;13.284;2023-07-13T00:43:46;23.30;79.80
12604;DHT22;6367;52.508;13.284;2023-07-13T00:46:19;23.20;79.90
12604;DHT22;6367;52.508;13.284;2023-07-13T00:48:47;23.10;80.30
12604;DHT22;6367;52.508;13.284;2023-07-13T00:51:16;23.30;80.40
12604;DHT22;6367;52.508;13.284;2023-07-13T00:53:44;23.20;80.60
12604;DHT22;6367;52.508;13.284;2023-07-13T00:56:10;23.40;80.70
12604;DHT22;6367;52.508;13.284;2023-07-13T00:58:36;23.30;80.50
12604;DHT22;6367;52.508;13.284;2023-07-13T01:01:02;23.40;80.70
12604;DHT22;6367;52.508;13.284;2023-07-13T01:03:28;23.40;80.70
12604;DHT22;6367;52.508;13.284;2023-07-13T01:05:54;23.20;81.10
12604;DHT22;6367;52.508;13.284;2023-07-13T01:08:21;23.20;81.60
12604;DHT22;6367;52.508;13.284;2023-07-13T01:10:57;23.20;81.50
12604;DHT22;6367;52.508;13.284;2023-07-13T01:13:26;23.10;81.90
12604;DHT22;6367;52.508;13.284;2023-07-13T01:15:53;23.10;82.40
12604;DHT22;6367;52.508;13.284;2023-07-13T01:18:25;23.00;82.40
12604;DHT22;6367;52.508;13.284;2023-07-13T01:23:21;22.90;83.40
12604;DHT22;6367;52.508;13.284;2023-07-13T01:25:46;22.80;83.50
12604;DHT22;6367;52.508;13.284;2023-07-13T01:28:12;22.80;83.90
12604;DHT22;6367;52.508;13.284;2023-07-13T01:30:39;22.80;83.90
12604;DHT22;6367;52.508;13.284;2023-07-13T01:33:07;22.70;84.10
12604;DHT22;6367;52.508;13.284;2023-07-13T01:35:33;22.60;84.40
12604;DHT22;6367;52.508;13.284;2023-07-13T01:37:59;22.80;84.50
12604;DHT22;6367;52.508;13.284;2023-07-13T01:40:27;22.70;84.50
12604;DHT22;6367;52.508;13.284;2023-07-13T01:42:53;22.70;84.70
12604;DHT22;6367;52.508;13.284;2023-07-13T01:45:18;22.70;84.70
12604;DHT22;6367;52.508;13.284;2023-07-13T01:47:44;22.60;84.90
12604;DHT22;6367;52.508;13.284;2023-07-13T01:50:10;22.60;85.20
12604;DHT22;6367;52.508;13.284;2023-07-13T01:52:36;22.50;85.30
12604;DHT22;6367;52.508;13.284;2023-07-13T01:55:01;22.50;85.20
12604;DHT22;6367;52.508;13.284;2023-07-13T01:57:27;22.40;85.30
12604;DHT22;6367;52.508;13.284;2023-07-13T01:59:53;22.40;85.30
12604;DHT22;6367;52.508;13.284;2023-07-13T02:02:19;22.30;85.50
12604;DHT22;6367;52.508;13.284;2023-07-13T02:04:45;22.40;85.30
12604;DHT22;6367;52.508;13.284;2023-07-13T02:07:10;22.40;85.20
12604;DHT22;6367;52.508;13.284;2023-07-13T02:09:36;22.40;85.30
12604;DHT22;6367;52.508;13.284;2023-07-13T02:12:02;22.40;85.30
12604;DHT22;6367;52.508;13.284;2023-07-13T02:14:28;22.40;85.90
12604;DHT22;6367;52.508;13.284;2023-07-13T02:16:54;22.40;85.10
12604;DHT22;6367;52.508;13.284;2023-07-13T02:19:20;22.40;85.10
12604;DHT22;6367;52.508;13.284;2023-07-13T02:21:45;22.40;85.30
12604;DHT22;6367;52.508;13.284;2023-07-13T02:24:11;22.40;85.20
12604;DHT22;6367;52.508;13.284;2023-07-13T02:26:43;22.30;85.50
12604;DHT22;6367;52.508;13.284;2023-07-13T02:29:09;22.30;85.60
12604;DHT22;6367;52.508;13.284;2023-07-13T02:31:34;22.40;85.60
12604;DHT22;6367;52.508;13.284;2023-07-13T02:34:02;22.30;85.50
12604;DHT22;6367;52.508;13.284;2023-07-13T02:36:28;22.20;85.70
12604;DHT22;6367;52.508;13.284;2023-07-13T02:38:54;22.20;86.10
12604;DHT22;6367;52.508;13.284;2023-07-13T02:41:20;22.10;86.20
12604;DHT22;6367;52.508;13.284;2023-07-13T02:43:46;22.10;86.40
12604;DHT22;6367;52.508;13.284;2023-07-13T02:46:11;22.00;86.70
12604;DHT22;6367;52.508;13.284;2023-07-13T02:48:38;22.10;86.60
12604;DHT22;6367;52.508;13.284;2023-07-13T02:51:05;22.20;86.40
12604;DHT22;6367;52.508;13.284;2023-07-13T02:53:31;22.20;85.90
12604;DHT22;6367;52.508;13.284;2023-07-13T02:55:57;22.20;86.50
12604;DHT22;6367;52.508;13.284;2023-07-13T02:58:23;22.20;86.70
12604;DHT22;6367;52.508;13.284;2023-07-13T03:00:49;22.20;86.80
12604;DHT22;6367;52.508;13.284;2023-07-13T03:03:16;22.20;86.80
12604;DHT22;6367;52.508;13.284;2023-07-13T03:05:43;22.30;86.80
12604;DHT22;6367;52.508;13.284;2023-07-13T03:08:10;22.30;86.80
12604;DHT22;6367;52.508;13.284;2023-07-13T03:10:36;22.30;87.40
12604;DHT22;6367;52.508;13.284;2023-07-13T03:13:02;22.20;87.60
12604;DHT22;6367;52.508;13.284;2023-07-13T03:15:28;22.20;87.80
12604;DHT22;6367;52.508;13.284;2023-07-13T03:17:54;22.20;88.10
12604;DHT22;6367;52.508;13.284;2023-07-13T03:20:19;22.30;88.50
12604;DHT22;6367;52.508;13.284;2023-07-13T03:22:45;22.30;88.70
12604;DHT22;6367;52.508;13.284;2023-07-13T03:25:11;22.30;89.20
12604;DHT22;6367;52.508;13.284;2023-07-13T03:27:37;22.20;89.60
12604;DHT22;6367;52.508;13.284;2023-07-13T03:30:05;22.30;90.00
12604;DHT22;6367;52.508;13.284;2023-07-13T03:32:31;22.20;90.00
12604;DHT22;6367;52.508;13.284;2023-07-13T03:34:56;22.20;89.90
12604;DHT22;6367;52.508;13.284;2023-07-13T03:37:22;22.10;89.60
12604;DHT22;6367;52.508;13.284;2023-07-13T03:39:48;22.20;89.30
12604;DHT22;6367;52.508;13.284;2023-07-13T03:42:14;22.20;89.40
12604;DHT22;6367;52.508;13.284;2023-07-13T03:44:40;22.30;89.30
12604;DHT22;6367;52.508;13.284;2023-07-13T03:47:06;22.20;89.10
12604;DHT22;6367;52.508;13.284;2023-07-13T03:49:34;22.20;89.10
12604;DHT22;6367;52.508;13.284;2023-07-13T03:52:00;22.20;88.90
12604;DHT22;6367;52.508;13.284;2023-07-13T03:54:26;22.20;88.50
12604;DHT22;6367;52.508;13.284;2023-07-13T03:56:51;22.20;88.60
12604;DHT22;6367;52.508;13.284;2023-07-13T03:59:17;22.20;88.60
12604;DHT22;6367;52.508;13.284;2023-07-13T04:01:44;22.20;88.60
12604;DHT22;6367;52.508;13.284;2023-07-13T04:04:09;22.20;88.50
12604;DHT22;6367;52.508;13.284;2023-07-13T04:06:35;22.20;88.60
12604;DHT22;6367;52.508;13.284;2023-07-13T04:09:02;22.20;88.60
12604;DHT22;6367;52.508;13.284;2023-07-13T04:11:32;22.10;88.80
12604;DHT22;6367;52.508;13.284;2023-07-13T04:13:58;22.20;89.00
12604;DHT22;6367;52.508;13.284;2023-07-13T04:16:24;22.10;89.00
12604;DHT22;6367;52.508;13.284;2023-07-13T04:18:50;22.10;89.00
12604;DHT22;6367;52.508;13.284;2023-07-13T04:21:20;22.10;90.00
12604;DHT22;6367;52.508;13.284;2023-07-13T04:23:46;22.00;89.50
12604;DHT22;6367;52.508;13.284;2023-07-13T04:26:12;22.00;89.50
12604;DHT22;6367;52.508;13.284;2023-07-13T04:28:37;22.00;89.50
12604;DHT22;6367;52.508;13.284;2023-07-13T04:31:03;22.10;89.40
12604;DHT22;6367;52.508;13.284;2023-07-13T04:33:29;22.10;89.50
12604;DHT22;6367;52.508;13.284;2023-07-13T04:35:56;22.10;89.50
12604;DHT22;6367;52.508;13.284;2023-07-13T04:38:24;22.20;89.40
12604;DHT22;6367;52.508;13.284;2023-07-13T04:40:50;22.20;89.40
12604;DHT22;6367;52.508;13.284;2023-07-13T04:43:17;22.30;89.40
12604;DHT22;6367;52.508;13.284;2023-07-13T04:45:42;22.30;89.30
12604;DHT22;6367;52.508;13.284;2023-07-13T04:48:08;22.30;89.30
12604;DHT22;6367;52.508;13.284;2023-07-13T04:50:36;22.30;89.40
12604;DHT22;6367;52.508;13.284;2023-07-13T04:53:02;22.30;89.40
12604;DHT22;6367;52.508;13.284;2023-07-13T04:55:30;22.30;89.80
12604;DHT22;6367;52.508;13.284;2023-07-13T04:57:56;22.30;89.80
12604;DHT22;6367;52.508;13.284;2023-07-13T05:00:24;22.30;89.80
12604;DHT22;6367;52.508;13.284;2023-07-13T05:02:50;22.40;89.90
12604;DHT22;6367;52.508;13.284;2023-07-13T05:05:15;22.40;89.80
12604;DHT22;6367;52.508;13.284;2023-07-13T05:07:41;22.50;89.90
12604;DHT22;6367;52.508;13.284;2023-07-13T05:10:07;22.50;89.60
12604;DHT22;6367;52.508;13.284;2023-07-13T05:12:33;22.50;89.70
12604;DHT22;6367;52.508;13.284;2023-07-13T05:14:59;22.50;89.80
12604;DHT22;6367;52.508;13.284;2023-07-13T05:17:24;22.40;90.00
12604;DHT22;6367;52.508;13.284;2023-07-13T05:19:50;22.50;90.00
12604;DHT22;6367;52.508;13.284;2023-07-13T05:22:16;22.50;90.00
12604;DHT22;6367;52.508;13.284;2023-07-13T05:24:41;22.40;90.00
12604;DHT22;6367;52.508;13.284;2023-07-13T05:27:07;22.50;90.00
12604;DHT22;6367;52.508;13.284;2023-07-13T05:29:33;22.40;90.00
12604;DHT22;6367;52.508;13.284;2023-07-13T05:31:58;22.40;89.80
12604;DHT22;6367;52.508;13.284;2023-07-13T05:34:24;22.50;89.70
12604;DHT22;6367;52.508;13.284;2023-07-13T05:36:50;22.60;89.40
12604;DHT22;6367;52.508;13.284;2023-07-13T05:39:16;22.70;88.70
12604;DHT22;6367;52.508;13.284;2023-07-13T05:41:42;22.70;88.60
12604;DHT22;6367;52.508;13.284;2023-07-13T05:44:07;22.80;88.50
12604;DHT22;6367;52.508;13.284;2023-07-13T05:46:33;22.80;88.20
12604;DHT22;6367;52.508;13.284;2023-07-13T05:48:59;22.90;88.60
12604;DHT22;6367;52.508;13.284;2023-07-13T05:51:25;23.00;88.10
12604;DHT22;6367;52.508;13.284;2023-07-13T05:53:50;23.00;88.00
12604;DHT22;6367;52.508;13.284;2023-07-13T05:56:16;23.10;87.80
12604;DHT22;6367;52.508;13.284;2023-07-13T05:58:42;23.00;87.60
12604;DHT22;6367;52.508;13.284;2023-07-13T06:01:12;23.10;87.70
12604;DHT22;6367;52.508;13.284;2023-07-13T06:03:38;23.20;87.70
12604;DHT22;6367;52.508;13.284;2023-07-13T06:06:05;23.30;87.50
12604;DHT22;6367;52.508;13.284;2023-07-13T06:08:31;23.40;87.20
12604;DHT22;6367;52.508;13.284;2023-07-13T06:11:06;23.50;86.80
12604;DHT22;6367;52.508;13.284;2023-07-13T06:13:32;23.50;87.00
12604;DHT22;6367;52.508;13.284;2023-07-13T06:15:58;23.50;86.80
12604;DHT22;6367;52.508;13.284;2023-07-13T06:18:24;23.60;87.10
12604;DHT22;6367;52.508;13.284;2023-07-13T06:20:50;23.70;87.10
12604;DHT22;6367;52.508;13.284;2023-07-13T06:23:15;23.90;86.90
12604;DHT22;6367;52.508;13.284;2023-07-13T06:25:41;24.00;86.40
12604;DHT22;6367;52.508;13.284;2023-07-13T06:28:08;24.00;85.90
12604;DHT22;6367;52.508;13.284;2023-07-13T06:30:34;24.10;85.90
12604;DHT22;6367;52.508;13.284;2023-07-13T06:32:59;23.80;85.30
12604;DHT22;6367;52.508;13.284;2023-07-13T06:35:25;24.20;86.50
12604;DHT22;6367;52.508;13.284;2023-07-13T06:37:51;24.40;85.30
12604;DHT22;6367;52.508;13.284;2023-07-13T06:40:16;24.50;84.90
12604;DHT22;6367;52.508;13.284;2023-07-13T06:42:42;24.50;84.80
12604;DHT22;6367;52.508;13.284;2023-07-13T06:45:08;24.40;84.60
12604;DHT22;6367;52.508;13.284;2023-07-13T06:47:34;24.50;84.20
12604;DHT22;6367;52.508;13.284;2023-07-13T06:50:00;24.70;84.70
12604;DHT22;6367;52.508;13.284;2023-07-13T06:52:26;24.80;83.70
12604;DHT22;6367;52.508;13.284;2023-07-13T06:54:51;25.00;83.10
12604;DHT22;6367;52.508;13.284;2023-07-13T06:57:17;25.00;82.80
12604;DHT22;6367;52.508;13.284;2023-07-13T06:59:43;25.10;82.30
12604;DHT22;6367;52.508;13.284;2023-07-13T07:02:10;25.00;82.40
12604;DHT22;6367;52.508;13.284;2023-07-13T07:04:36;25.30;82.20
12604;DHT22;6367;52.508;13.284;2023-07-13T07:07:02;25.60;81.50
12604;DHT22;6367;52.508;13.284;2023-07-13T07:09:27;26.00;80.60
12604;DHT22;6367;52.508;13.284;2023-07-13T07:11:55;26.50;78.90
12604;DHT22;6367;52.508;13.284;2023-07-13T07:14:21;26.80;77.30
12604;DHT22;6367;52.508;13.284;2023-07-13T07:16:46;27.00;76.40
12604;DHT22;6367;52.508;13.284;2023-07-13T07:19:12;27.20;75.90
12604;DHT22;6367;52.508;13.284;2023-07-13T07:21:38;27.20;75.40
12604;DHT22;6367;52.508;13.284;2023-07-13T07:24:04;27.10;75.60
12604;DHT22;6367;52.508;13.284;2023-07-13T07:26:30;27.10;75.50
12604;DHT22;6367;52.508;13.284;2023-07-13T07:28:56;27.00;75.10
12604;DHT22;6367;52.508;13.284;2023-07-13T07:31:22;26.80;76.30
12604;DHT22;6367;52.508;13.284;2023-07-13T07:33:48;26.60;75.60
12604;DHT22;6367;52.508;13.284;2023-07-13T07:36:15;26.40;76.40
12604;DHT22;6367;52.508;13.284;2023-07-13T07:38:41;26.20;76.90
12604;DHT22;6367;52.508;13.284;2023-07-13T07:41:07;26.00;77.20
12604;DHT22;6367;52.508;13.284;2023-07-13T07:43:33;25.90;77.50
12604;DHT22;6367;52.508;13.284;2023-07-13T07:45:59;25.80;77.20
12604;DHT22;6367;52.508;13.284;2023-07-13T07:48:24;25.90;76.90
12604;DHT22;6367;52.508;13.284;2023-07-13T07:50:50;25.80;76.60
12604;DHT22;6367;52.508;13.284;2023-07-13T07:53:16;25.70;76.20
12604;DHT22;6367;52.508;13.284;2023-07-13T07:55:41;25.80;75.70
12604;DHT22;6367;52.508;13.284;2023-07-13T07:58:07;25.80;75.80
12604;DHT22;6367;52.508;13.284;2023-07-13T08:00:33;25.80;76.00
12604;DHT22;6367;52.508;13.284;2023-07-13T08:02:59;25.80;76.00
12604;DHT22;6367;52.508;13.284;2023-07-13T08:05:25;25.80;76.30
12604;DHT22;6367;52.508;13.284;2023-07-13T08:07:51;25.80;76.90
12604;DHT22;6367;52.508;13.284;2023-07-13T08:10:17;25.90;77.80
12604;DHT22;6367;52.508;13.284;2023-07-13T08:12:43;25.90;76.90
12604;DHT22;6367;52.508;13.284;2023-07-13T08:15:14;26.00;76.80
12604;DHT22;6367;52.508;13.284;2023-07-13T08:17:40;26.00;76.70
12604;DHT22;6367;52.508;13.284;2023-07-13T08:20:06;26.10;76.80
12604;DHT22;6367;52.508;13.284;2023-07-13T08:22:32;26.10;76.80
12604;DHT22;6367;52.508;13.284;2023-07-13T08:24:59;26.10;77.10
12604;DHT22;6367;52.508;13.284;2023-07-13T08:27:26;26.10;76.90
12604;DHT22;6367;52.508;13.284;2023-07-13T08:29:53;26.10;77.10
12604;DHT22;6367;52.508;13.284;2023-07-13T08:32:20;26.20;77.00
12604;DHT22;6367;52.508;13.284;2023-07-13T08:34:46;26.30;76.80
12604;DHT22;6367;52.508;13.284;2023-07-13T08:37:12;26.20;76.20
12604;DHT22;6367;52.508;13.284;2023-07-13T08:39:37;26.30;76.30
12604;DHT22;6367;52.508;13.284;2023-07-13T08:42:15;26.30;75.60
12604;DHT22;6367;52.508;13.284;2023-07-13T08:45:00;26.30;74.90
12604;DHT22;6367;52.508;13.284;2023-07-13T08:47:28;26.20;74.50
12604;DHT22;6367;52.508;13.284;2023-07-13T08:49:55;26.10;74.90
12604;DHT22;6367;52.508;13.284;2023-07-13T08:54:56;26.20;75.30
12604;DHT22;6367;52.508;13.284;2023-07-13T08:57:27;26.40;74.90
12604;DHT22;6367;52.508;13.284;2023-07-13T08:59:55;26.40;74.00
12604;DHT22;6367;52.508;13.284;2023-07-13T09:02:51;26.50;73.50
12604;DHT22;6367;52.508;13.284;2023-07-13T09:05:33;26.70;72.50
12604;DHT22;6367;52.508;13.284;2023-07-13T09:14:10;26.90;71.00
12604;DHT22;6367;52.508;13.284;2023-07-13T09:16:39;27.00;71.10
12604;DHT22;6367;52.508;13.284;2023-07-13T09:19:08;27.10;70.70
12604;DHT22;6367;52.508;13.284;2023-07-13T09:21:40;27.20;70.70
12604;DHT22;6367;52.508;13.284;2023-07-13T09:24:25;26.90;69.70
12604;DHT22;6367;52.508;13.284;2023-07-13T09:26:52;27.30;69.40
12604;DHT22;6367;52.508;13.284;2023-07-13T09:29:28;27.40;66.70
12604;DHT22;6367;52.508;13.284;2023-07-13T09:31:57;27.30;65.40
12604;DHT22;6367;52.508;13.284;2023-07-13T09:34:25;27.20;64.90
12604;DHT22;6367;52.508;13.284;2023-07-13T09:36:51;27.10;65.70
12604;DHT22;6367;52.508;13.284;2023-07-13T09:39:29;27.20;66.10
12604;DHT22;6367;52.508;13.284;2023-07-13T09:42:20;27.20;67.10
12604;DHT22;6367;52.508;13.284;2023-07-13T09:44:55;27.30;66.20
12604;DHT22;6367;52.508;13.284;2023-07-13T09:47:30;27.30;66.50
12604;DHT22;6367;52.508;13.284;2023-07-13T09:50:01;27.40;66.60
12604;DHT22;6367;52.508;13.284;2023-07-13T09:52:28;27.50;66.10
12604;DHT22;6367;52.508;13.284;2023-07-13T09:55:04;27.50;66.40
12604;DHT22;6367;52.508;13.284;2023-07-13T09:57:30;27.50;66.40
12604;DHT22;6367;52.508;13.284;2023-07-13T09:59:56;27.70;66.40
12604;DHT22;6367;52.508;13.284;2023-07-13T10:04:57;27.80;65.90
12604;DHT22;6367;52.508;13.284;2023-07-13T10:07:24;27.90;65.50
12604;DHT22;6367;52.508;13.284;2023-07-13T10:09:59;28.00;65.30
12604;DHT22;6367;52.508;13.284;2023-07-13T10:12:30;28.10;64.80
12604;DHT22;6367;52.508;13.284;2023-07-13T10:15:01;28.10;64.70
12604;DHT22;6367;52.508;13.284;2023-07-13T10:17:31;28.20;63.80
12604;DHT22;6367;52.508;13.284;2023-07-13T10:20:05;28.20;64.10
12604;DHT22;6367;52.508;13.284;2023-07-13T10:25:23;28.20;64.30
12604;DHT22;6367;52.508;13.284;2023-07-13T10:27:56;28.30;64.30
12604;DHT22;6367;52.508;13.284;2023-07-13T10:30:30;28.30;63.80
12604;DHT22;6367;52.508;13.284;2023-07-13T10:33:03;28.30;63.60
12604;DHT22;6367;52.508;13.284;2023-07-13T10:35:30;28.40;64.40
12604;DHT22;6367;52.508;13.284;2023-07-13T10:38:26;28.60;64.20
12604;DHT22;6367;52.508;13.284;2023-07-13T10:41:02;28.50;62.80
12604;DHT22;6367;52.508;13.284;2023-07-13T10:43:35;28.50;63.50
12604;DHT22;6367;52.508;13.284;2023-07-13T10:46:04;28.60;62.90
12604;DHT22;6367;52.508;13.284;2023-07-13T10:48:31;28.70;62.30
12604;DHT22;6367;52.508;13.284;2023-07-13T10:51:00;28.70;63.00
12604;DHT22;6367;52.508;13.284;2023-07-13T10:53:31;28.70;62.40
12604;DHT22;6367;52.508;13.284;2023-07-13T10:56:02;28.80;62.00
12604;DHT22;6367;52.508;13.284;2023-07-13T10:58:38;28.80;61.50
12604;DHT22;6367;52.508;13.284;2023-07-13T11:03:46;29.00;60.90
12604;DHT22;6367;52.508;13.284;2023-07-13T11:06:37;29.00;60.60
12604;DHT22;6367;52.508;13.284;2023-07-13T11:09:31;28.00;59.90
12604;DHT22;6367;52.508;13.284;2023-07-13T11:12:02;29.00;59.90
12604;DHT22;6367;52.508;13.284;2023-07-13T11:16:54;29.10;60.30
12604;DHT22;6367;52.508;13.284;2023-07-13T11:24:57;28.90;59.70
12604;DHT22;6367;52.508;13.284;2023-07-13T11:27:45;28.80;59.20
12604;DHT22;6367;52.508;13.284;2023-07-13T11:30:31;28.80;59.50
12604;DHT22;6367;52.508;13.284;2023-07-13T11:35:59;28.80;59.60
12604;DHT22;6367;52.508;13.284;2023-07-13T11:41:02;28.90;58.80
12604;DHT22;6367;52.508;13.284;2023-07-13T11:43:29;28.70;58.30
12604;DHT22;6367;52.508;13.284;2023-07-13T11:45:55;29.10;58.40
12604;DHT22;6367;52.508;13.284;2023-07-13T11:50:52;29.10;58.30
12604;DHT22;6367;52.508;13.284;2023-07-13T11:53:18;29.00;58.20
12604;DHT22;6367;52.508;13.284;2023-07-13T11:55:44;29.00;58.20
12604;DHT22;6367;52.508;13.284;2023-07-13T11:58:18;28.90;58.30
12604;DHT22;6367;52.508;13.284;2023-07-13T12:00:46;29.00;58.60
12604;DHT22;6367;52.508;13.284;2023-07-13T12:03:13;28.90;58.50
12604;DHT22;6367;52.508;13.284;2023-07-13T12:06:02;28.80;59.10
12604;DHT22;6367;52.508;13.284;2023-07-13T12:08:29;28.80;59.20
12604;DHT22;6367;52.508;13.284;2023-07-13T12:11:06;28.80;59.60
12604;DHT22;6367;52.508;13.284;2023-07-13T12:13:37;28.80;59.40
12604;DHT22;6367;52.508;13.284;2023-07-13T12:16:11;28.90;59.50
12604;DHT22;6367;52.508;13.284;2023-07-13T12:18:37;29.10;59.30
12604;DHT22;6367;52.508;13.284;2023-07-13T12:21:04;29.10;58.30
12604;DHT22;6367;52.508;13.284;2023-07-13T12:23:33;29.10;58.20
12604;DHT22;6367;52.508;13.284;2023-07-13T12:26:02;29.10;58.00
12604;DHT22;6367;52.508;13.284;2023-07-13T12:28:44;29.20;57.90
12604;DHT22;6367;52.508;13.284;2023-07-13T12:31:29;29.30;58.00
12604;DHT22;6367;52.508;13.284;2023-07-13T12:34:06;29.20;58.50
12604;DHT22;6367;52.508;13.284;2023-07-13T12:36:35;29.40;58.20
12604;DHT22;6367;52.508;13.284;2023-07-13T12:39:12;29.40;57.30
12604;DHT22;6367;52.508;13.284;2023-07-13T12:41:38;29.30;57.50
12604;DHT22;6367;52.508;13.284;2023-07-13T12:44:08;29.40;56.80
12604;DHT22;6367;52.508;13.284;2023-07-13T12:46:35;29.40;57.00
12604;DHT22;6367;52.508;13.284;2023-07-13T12:49:00;29.30;56.70
12604;DHT22;6367;52.508;13.284;2023-07-13T12:51:32;29.30;56.90
12604;DHT22;6367;52.508;13.284;2023-07-13T12:54:07;29.10;57.30
12604;DHT22;6367;52.508;13.284;2023-07-13T12:56:37;29.10;57.60
12604;DHT22;6367;52.508;13.284;2023-07-13T12:59:04;29.00;57.80
12604;DHT22;6367;52.508;13.284;2023-07-13T13:01:34;28.90;57.90
12604;DHT22;6367;52.508;13.284;2023-07-13T13:04:03;28.80;57.50
12604;DHT22;6367;52.508;13.284;2023-07-13T13:06:34;28.70;57.50
12604;DHT22;6367;52.508;13.284;2023-07-13T13:09:02;28.70;58.10
12604;DHT22;6367;52.508;13.284;2023-07-13T13:11:31;28.70;58.40
12604;DHT22;6367;52.508;13.284;2023-07-13T13:13:57;28.90;58.70
12604;DHT22;6367;52.508;13.284;2023-07-13T13:16:32;29.00;58.90
12604;DHT22;6367;52.508;13.284;2023-07-13T13:19:05;29.10;58.60
12604;DHT22;6367;52.508;13.284;2023-07-13T13:21:35;29.30;57.40
12604;DHT22;6367;52.508;13.284;2023-07-13T13:24:01;29.30;56.70
12604;DHT22;6367;52.508;13.284;2023-07-13T13:26:27;29.30;56.80
12604;DHT22;6367;52.508;13.284;2023-07-13T13:28:52;29.30;57.10
12604;DHT22;6367;52.508;13.284;2023-07-13T13:31:19;29.40;57.40
12604;DHT22;6367;52.508;13.284;2023-07-13T13:33:45;29.40;57.60
12604;DHT22;6367;52.508;13.284;2023-07-13T13:36:23;29.30;57.40
12604;DHT22;6367;52.508;13.284;2023-07-13T13:38:50;29.20;57.40
12604;DHT22;6367;52.508;13.284;2023-07-13T13:41:16;29.20;57.30
12604;DHT22;6367;52.508;13.284;2023-07-13T13:43:43;29.20;57.20
12604;DHT22;6367;52.508;13.284;2023-07-13T13:46:16;29.10;57.20
12604;DHT22;6367;52.508;13.284;2023-07-13T13:48:43;29.10;57.00
12604;DHT22;6367;52.508;13.284;2023-07-13T13:51:18;29.00;57.10
12604;DHT22;6367;52.508;13.284;2023-07-13T13:53:46;29.00;57.10
12604;DHT22;6367;52.508;13.284;2023-07-13T13:56:13;29.10;57.20
12604;DHT22;6367;52.508;13.284;2023-07-13T13:58:39;29.00;57.20
12604;DHT22;6367;52.508;13.284;2023-07-13T14:01:10;28.90;57.20
12604;DHT22;6367;52.508;13.284;2023-07-13T14:03:37;29.00;57.10
12604;DHT22;6367;52.508;13.284;2023-07-13T14:06:03;28.90;57.20
12604;DHT22;6367;52.508;13.284;2023-07-13T14:08:29;29.00;57.70
12604;DHT22;6367;52.508;13.284;2023-07-13T14:10:56;28.90;57.80
12604;DHT22;6367;52.508;13.284;2023-07-13T14:13:30;28.90;58.30
12604;DHT22;6367;52.508;13.284;2023-07-13T14:15:57;28.80;58.50
12604;DHT22;6367;52.508;13.284;2023-07-13T14:18:24;28.80;58.70
12604;DHT22;6367;52.508;13.284;2023-07-13T14:20:50;28.80;58.80
12604;DHT22;6367;52.508;13.284;2023-07-13T14:23:18;28.70;58.90
12604;DHT22;6367;52.508;13.284;2023-07-13T14:25:45;28.70;58.90
12604;DHT22;6367;52.508;13.284;2023-07-13T14:28:25;28.70;58.90
12604;DHT22;6367;52.508;13.284;2023-07-13T14:30:52;28.70;58.60
12604;DHT22;6367;52.508;13.284;2023-07-13T14:33:18;28.70;58.80
12604;DHT22;6367;52.508;13.284;2023-07-13T14:35:44;28.00;58.40
12604;DHT22;6367;52.508;13.284;2023-07-13T14:38:13;28.70;58.70
12604;DHT22;6367;52.508;13.284;2023-07-13T14:40:41;28.60;58.60
12604;DHT22;6367;52.508;13.284;2023-07-13T14:43:10;28.70;58.50
12604;DHT22;6367;52.508;13.284;2023-07-13T14:45:46;28.60;58.50
12604;DHT22;6367;52.508;13.284;2023-07-13T14:48:23;28.60;58.70
12604;DHT22;6367;52.508;13.284;2023-07-13T14:50:57;28.50;58.30
12604;DHT22;6367;52.508;13.284;2023-07-13T14:53:24;28.40;58.40
12604;DHT22;6367;52.508;13.284;2023-07-13T14:55:50;28.40;58.60
12604;DHT22;6367;52.508;13.284;2023-07-13T14:58:15;28.50;57.80
12604;DHT22;6367;52.508;13.284;2023-07-13T15:00:41;28.50;57.20
12604;DHT22;6367;52.508;13.284;2023-07-13T15:03:18;28.50;56.80
12604;DHT22;6367;52.508;13.284;2023-07-13T15:05:46;28.50;56.80
12604;DHT22;6367;52.508;13.284;2023-07-13T15:08:12;28.40;56.40
12604;DHT22;6367;52.508;13.284;2023-07-13T15:10:38;28.40;56.70
12604;DHT22;6367;52.508;13.284;2023-07-13T15:13:16;28.40;56.50
12604;DHT22;6367;52.508;13.284;2023-07-13T15:15:45;28.40;56.40
12604;DHT22;6367;52.508;13.284;2023-07-13T15:18:13;28.50;56.80
12604;DHT22;6367;52.508;13.284;2023-07-13T15:20:39;28.50;56.70
12604;DHT22;6367;52.508;13.284;2023-07-13T15:23:05;28.50;57.00
12604;DHT22;6367;52.508;13.284;2023-07-13T15:25:32;28.50;57.30
12604;DHT22;6367;52.508;13.284;2023-07-13T15:28:01;28.50;57.20
12604;DHT22;6367;52.508;13.284;2023-07-13T15:30:36;28.60;57.20
12604;DHT22;6367;52.508;13.284;2023-07-13T15:33:23;28.50;57.40
12604;DHT22;6367;52.508;13.284;2023-07-13T15:35:49;28.50;57.40
12604;DHT22;6367;52.508;13.284;2023-07-13T15:40:47;28.40;57.80
12604;DHT22;6367;52.508;13.284;2023-07-13T15:43:14;28.30;58.10
12604;DHT22;6367;52.508;13.284;2023-07-13T15:45:41;28.30;58.30
12604;DHT22;6367;52.508;13.284;2023-07-13T15:48:29;28.30;58.40
12604;DHT22;6367;52.508;13.284;2023-07-13T15:51:01;28.40;58.20
12604;DHT22;6367;52.508;13.284;2023-07-13T15:53:32;28.30;58.30
12604;DHT22;6367;52.508;13.284;2023-07-13T15:55:59;28.30;58.30
12604;DHT22;6367;52.508;13.284;2023-07-13T15:58:27;28.30;58.40
12604;DHT22;6367;52.508;13.284;2023-07-13T16:00:54;28.30;58.30
12604;DHT22;6367;52.508;13.284;2023-07-13T16:03:20;28.30;58.30
12604;DHT22;6367;52.508;13.284;2023-07-13T16:05:46;28.30;58.20
12604;DHT22;6367;52.508;13.284;2023-07-13T16:08:27;28.30;58.20
12604;DHT22;6367;52.508;13.284;2023-07-13T16:10:56;28.30;58.10
12604;DHT22;6367;52.508;13.284;2023-07-13T16:13:22;28.30;58.70
12604;DHT22;6367;52.508;13.284;2023-07-13T16:15:50;28.30;58.50